Time;durP1;ratioP1;P1;durP2;ratioP2;P2;SDS_P1;SDS_P2;PMS_P1;PMS_P2;Temp;Humidity;BMP_temperature;BMP_pressure;BME280_temperature;BME280_humidity;BME280_pressure;Samples;Min_cycle;Max_cycle;Signal;HPM_P1;HPM_P2
2023/04/19 00:01:00;;;;;;;10.68;7.30;;;9.10;99.90;;;;;;5071273;28;20093;-70
2023/04/19 00:03:26;;;;;;;9.07;5.88;;;9.10;99.90;;;;;;5071405;28;20052;-70
2023/04/19 00:05:58;;;;;;;9.93;6.00;;;9.10;99.90;;;;;;5072122;28;20040;-70
2023/04/19 00:08:25;;;;;;;10.73;7.18;;;9.10;99.90;;;;;;5072424;28;20559;-70
2023/04/19 00:10:50;;;;;;;8.35;5.80;;;9.10;99.90;;;;;;5071106;28;20050;-70
2023/04/19 00:13:16;;;;;;;10.63;5.90;;;9.10;99.90;;;;;;5072191;28;20112;-71
2023/04/19 00:15:41;;;;;;;10.52;6.95;;;9.10;99.90;;;;;;5053925;28;20043;-71
2023/04/19 00:18:07;;;;;;;9.48;6.45;;;9.00;99.90;;;;;;5072153;28;20066;-70
2023/04/19 00:20:33;;;;;;;8.38;6.40;;;9.00;99.90;;;;;;5070613;28;20065;-70
2023/04/19 00:22:58;;;;;;;7.70;6.20;;;9.00;99.90;;;;;;5070236;28;20115;-69
2023/04/19 00:25:24;;;;;;;9.80;6.68;;;9.00;99.90;;;;;;5072031;28;20049;-70
2023/04/19 00:27:50;;;;;;;12.18;7.70;;;9.00;99.90;;;;;;5070865;28;20044;-70
2023/04/19 00:30:15;;;;;;;12.23;7.22;;;8.90;99.90;;;;;;5071928;28;20043;-70
2023/04/19 00:32:41;;;;;;;10.85;6.85;;;8.90;99.90;;;;;;5071796;28;20119;-70
2023/04/19 00:35:07;;;;;;;12.85;8.40;;;8.90;99.90;;;;;;5071670;28;20033;-69
2023/04/19 00:37:32;;;;;;;10.05;7.32;;;8.80;99.90;;;;;;5071633;28;20540;-70
2023/04/19 00:39:58;;;;;;;13.95;6.95;;;8.80;99.90;;;;;;5071934;28;20697;-70
2023/04/19 00:42:23;;;;;;;11.90;7.40;;;8.70;99.90;;;;;;5071811;28;20580;-70
2023/04/19 00:44:49;;;;;;;10.20;7.88;;;8.60;99.90;;;;;;5071592;28;20132;-70
2023/04/19 00:47:14;;;;;;;11.55;7.53;;;8.60;99.90;;;;;;5071531;28;20404;-70
2023/04/19 00:49:40;;;;;;;12.77;8.30;;;8.60;99.90;;;;;;5071494;28;20041;-70
2023/04/19 00:52:07;;;;;;;11.57;7.30;;;8.60;99.90;;;;;;5035333;28;1014120;-70
2023/04/19 00:54:33;;;;;;;11.32;7.55;;;8.50;99.90;;;;;;5072359;28;20046;-71
2023/04/19 00:56:58;;;;;;;12.95;8.45;;;8.50;99.90;;;;;;5072135;28;20127;-70
2023/04/19 00:59:24;;;;;;;13.15;8.02;;;8.50;99.90;;;;;;5071163;28;20463;-70
2023/04/19 01:01:50;;;;;;;15.35;9.43;;;8.40;99.90;;;;;;5071132;28;20052;-70
2023/04/19 01:04:16;;;;;;;12.30;8.02;;;8.30;99.90;;;;;;5072017;28;20068;-70
2023/04/19 01:06:41;;;;;;;12.68;8.80;;;8.30;99.90;;;;;;5070561;28;20131;-70
2023/04/19 01:09:08;;;;;;;14.35;9.25;;;8.30;99.90;;;;;;5054226;28;20041;-70
2023/04/19 01:11:33;;;;;;;13.75;9.32;;;8.20;99.90;;;;;;5072104;28;20041;-70
2023/04/19 01:13:59;;;;;;;15.48;9.65;;;8.20;99.90;;;;;;5070689;28;20040;-70
2023/04/19 01:16:27;;;;;;;15.32;9.57;;;8.20;99.90;;;;;;5070565;28;20045;-70
2023/04/19 01:18:53;;;;;;;17.27;9.30;;;8.20;99.90;;;;;;5071809;28;20081;-70
2023/04/19 01:21:19;;;;;;;14.20;9.75;;;8.20;99.90;;;;;;5071848;28;20120;-70
2023/04/19 01:23:44;;;;;;;13.48;9.57;;;8.10;99.90;;;;;;5072095;28;20036;-70
2023/04/19 01:26:10;;;;;;;14.27;9.50;;;8.20;99.90;;;;;;5071519;28;20044;-70
2023/04/19 01:28:36;;;;;;;14.60;9.38;;;8.20;99.90;;;;;;5071895;28;20044;-70
2023/04/19 01:31:01;;;;;;;14.27;9.57;;;8.20;99.90;;;;;;5071749;28;20043;-70
2023/04/19 01:33:27;;;;;;;15.95;10.38;;;8.10;99.90;;;;;;5069662;28;20044;-70
2023/04/19 01:35:52;;;;;;;17.80;10.50;;;8.10;99.90;;;;;;5070143;28;20039;-70
2023/04/19 01:38:18;;;;;;;17.02;10.18;;;8.10;99.90;;;;;;5070408;28;20040;-70
2023/04/19 01:40:44;;;;;;;16.88;10.52;;;8.10;99.90;;;;;;5071727;28;20037;-71
2023/04/19 01:43:12;;;;;;;20.23;12.25;;;8.10;99.90;;;;;;5070427;28;20041;-70
2023/04/19 01:45:38;;;;;;;14.65;9.90;;;8.10;99.90;;;;;;5071379;28;20508;-69
2023/04/19 01:48:03;;;;;;;17.00;11.48;;;8.10;99.90;;;;;;5070313;28;20068;-70
2023/04/19 01:50:30;;;;;;;14.98;10.65;;;8.10;99.90;;;;;;5070479;28;20040;-70
2023/04/19 01:52:56;;;;;;;15.48;10.30;;;8.00;99.90;;;;;;5071553;28;20480;-70
2023/04/19 01:55:21;;;;;;;18.80;11.15;;;8.00;99.90;;;;;;5071643;28;20040;-71
2023/04/19 01:57:47;;;;;;;15.80;10.82;;;8.00;99.90;;;;;;5071362;28;20045;-70
2023/04/19 02:00:14;;;;;;;16.63;10.88;;;7.90;99.90;;;;;;5071409;28;20123;-70
2023/04/19 02:02:39;;;;;;;15.05;11.05;;;7.90;99.90;;;;;;5071340;28;20109;-70
2023/04/19 02:05:06;;;;;;;13.25;9.07;;;7.80;99.90;;;;;;5070091;28;20118;-70
2023/04/19 02:07:31;;;;;;;15.98;10.57;;;7.80;99.90;;;;;;5069854;28;20075;-70
2023/04/19 02:09:58;;;;;;;16.35;10.07;;;7.80;99.90;;;;;;5071463;28;20083;-70
2023/04/19 02:12:28;;;;;;;14.57;10.00;;;7.70;99.90;;;;;;5071413;28;20040;-70
2023/04/19 02:14:58;;;;;;;16.67;10.63;;;7.70;99.90;;;;;;5071223;28;20082;-71
2023/04/19 02:17:23;;;;;;;15.98;9.65;;;7.80;99.90;;;;;;5069847;28;20127;-71
2023/04/19 02:19:49;;;;;;;18.83;11.00;;;7.70;99.90;;;;;;5070038;28;20128;-71
2023/04/19 02:22:14;;;;;;;13.82;10.13;;;7.70;99.90;;;;;;5069957;28;20037;-70
2023/04/19 02:24:40;;;;;;;13.77;8.98;;;7.70;99.90;;;;;;5070128;28;20509;-71
2023/04/19 02:27:05;;;;;;;13.05;9.02;;;7.70;99.90;;;;;;5071143;28;20657;-70
2023/04/19 02:29:32;;;;;;;13.73;9.48;;;7.60;99.90;;;;;;5069774;28;20051;-70
2023/04/19 02:31:58;;;;;;;15.40;9.27;;;7.60;99.90;;;;;;5071020;28;20047;-70
2023/04/19 02:34:23;;;;;;;11.40;8.65;;;7.60;99.90;;;;;;5071204;28;20435;-70
2023/04/19 02:36:49;;;;;;;16.52;9.23;;;7.50;99.90;;;;;;5069692;28;20040;-70
2023/04/19 02:39:16;;;;;;;10.73;7.40;;;7.50;99.90;;;;;;5071188;28;20090;-69
2023/04/19 02:41:41;;;;;;;11.48;8.25;;;7.50;99.90;;;;;;5071112;28;20036;-70
2023/04/19 02:44:07;;;;;;;10.50;8.18;;;7.50;99.90;;;;;;5070942;28;20514;-70
2023/04/19 02:46:33;;;;;;;15.27;8.48;;;7.50;99.90;;;;;;5056621;28;20055;-70
2023/04/19 02:49:01;;;;;;;11.90;8.18;;;7.40;99.90;;;;;;5074927;28;20037;-70
2023/04/19 02:51:27;;;;;;;13.55;7.47;;;7.40;99.90;;;;;;5074631;28;20514;-70
2023/04/19 02:53:52;;;;;;;10.02;7.18;;;7.40;99.90;;;;;;5074722;28;20120;-70
2023/04/19 02:56:18;;;;;;;13.68;7.53;;;7.30;99.90;;;;;;5074322;28;20090;-69
2023/04/19 02:58:44;;;;;;;14.25;7.80;;;7.30;99.90;;;;;;5073216;28;20041;-70
2023/04/19 03:01:09;;;;;;;13.10;7.63;;;7.20;99.90;;;;;;5073471;28;20557;-70
2023/04/19 03:03:35;;;;;;;13.13;7.90;;;7.30;99.90;;;;;;5074543;28;20054;-69
2023/04/19 03:06:01;;;;;;;13.88;9.00;;;7.20;99.90;;;;;;5073148;28;20075;-70
2023/04/19 03:08:27;;;;;;;13.82;7.25;;;7.20;99.90;;;;;;5073122;28;20507;-69
2023/04/19 03:10:52;;;;;;;12.82;7.70;;;7.20;99.90;;;;;;5074264;28;20032;-70
2023/04/19 03:13:18;;;;;;;16.92;7.90;;;7.10;99.90;;;;;;5074157;28;20040;-70
2023/04/19 03:15:43;;;;;;;12.80;7.97;;;7.20;99.90;;;;;;5072933;28;20033;-70
2023/04/19 03:18:09;;;;;;;11.63;6.93;;;7.10;99.90;;;;;;5072850;28;20054;-70
2023/04/19 03:20:35;;;;;;;14.15;7.40;;;7.10;99.90;;;;;;5074211;28;20047;-71
2023/04/19 03:23:01;;;;;;;10.40;7.10;;;7.10;99.90;;;;;;5073140;28;20124;-70
2023/04/19 03:25:26;;;;;;;10.93;7.30;;;7.00;99.90;;;;;;5073984;28;20090;-70
2023/04/19 03:27:52;;;;;;;13.25;7.25;;;7.00;99.90;;;;;;5072495;28;20067;-70
2023/04/19 03:30:17;;;;;;;9.68;6.90;;;7.00;99.90;;;;;;5072632;28;20052;-70
2023/04/19 03:32:43;;;;;;;10.93;7.18;;;7.00;99.90;;;;;;5072833;28;20064;-70
2023/04/19 03:35:09;;;;;;;12.75;7.40;;;6.90;99.90;;;;;;5072549;28;20044;-70
2023/04/19 03:37:34;;;;;;;9.48;6.90;;;6.90;99.90;;;;;;5073695;28;20041;-71
2023/04/19 03:40:00;;;;;;;10.32;7.45;;;6.80;99.90;;;;;;5073841;28;20040;-71
2023/04/19 03:42:26;;;;;;;12.65;7.05;;;6.80;99.90;;;;;;5073559;28;20417;-70
2023/04/19 03:44:51;;;;;;;11.13;7.57;;;6.70;99.90;;;;;;5073461;28;20044;-71
2023/04/19 03:47:17;;;;;;;11.63;7.38;;;6.70;99.90;;;;;;5073697;28;20048;-71
2023/04/19 03:49:42;;;;;;;10.13;7.07;;;6.70;99.90;;;;;;5073967;28;20048;-71
2023/04/19 03:52:08;;;;;;;12.45;7.72;;;6.70;99.90;;;;;;5072148;28;20036;-71
2023/04/19 03:54:34;;;;;;;11.25;7.40;;;6.60;99.90;;;;;;5073489;28;20125;-71
2023/04/19 03:56:59;;;;;;;10.68;7.50;;;6.60;99.90;;;;;;5072300;28;20161;-71
2023/04/19 03:59:25;;;;;;;9.43;6.78;;;6.70;99.90;;;;;;5072082;28;20079;-71
2023/04/19 04:01:50;;;;;;;9.60;6.97;;;6.60;99.90;;;;;;5072042;28;20411;-71
2023/04/19 04:04:16;;;;;;;12.57;7.45;;;6.60;99.90;;;;;;5072005;28;20499;-71
2023/04/19 04:06:41;;;;;;;10.48;7.05;;;6.60;99.90;;;;;;5071714;28;20063;-71
2023/04/19 04:09:07;;;;;;;11.07;7.43;;;6.50;99.90;;;;;;5073181;28;20067;-71
2023/04/19 04:11:33;;;;;;;14.65;7.82;;;6.40;99.90;;;;;;5055190;28;20071;-71
2023/04/19 04:13:58;;;;;;;12.40;7.57;;;6.40;99.90;;;;;;5073003;28;20518;-71
2023/04/19 04:16:24;;;;;;;10.25;7.32;;;6.40;99.90;;;;;;5071750;28;20052;-71
2023/04/19 04:18:50;;;;;;;12.15;7.75;;;6.40;99.90;;;;;;5073131;28;20115;-71
2023/04/19 04:21:15;;;;;;;13.82;7.47;;;6.40;99.90;;;;;;5071799;28;20040;-71
2023/04/19 04:23:41;;;;;;;12.50;7.18;;;6.40;99.90;;;;;;5072807;28;20032;-71
2023/04/19 04:26:08;;;;;;;11.70;7.75;;;6.30;99.90;;;;;;5072645;28;20036;-70
2023/04/19 04:28:34;;;;;;;14.02;8.05;;;6.30;99.90;;;;;;5071632;28;20040;-71
2023/04/19 04:31:00;;;;;;;9.27;6.85;;;6.30;99.90;;;;;;5072635;28;20035;-70
2023/04/19 04:33:26;;;;;;;13.63;7.10;;;6.30;99.90;;;;;;5071495;28;20633;-71
2023/04/19 04:35:53;;;;;;;13.02;7.60;;;6.20;99.90;;;;;;5071106;28;20052;-71
2023/04/19 04:38:20;;;;;;;9.45;6.38;;;6.30;99.90;;;;;;5071653;28;20044;-70
2023/04/19 04:40:50;;;;;;;10.00;6.57;;;6.20;99.90;;;;;;5071334;28;20040;-71
2023/04/19 04:43:16;;;;;;;13.35;6.57;;;6.20;99.90;;;;;;5072585;28;20047;-71
2023/04/19 04:45:43;;;;;;;11.40;6.60;;;6.20;99.90;;;;;;5071037;28;20033;-71
2023/04/19 04:48:08;;;;;;;10.63;6.78;;;6.20;99.90;;;;;;5071291;28;20048;-71
2023/04/19 04:50:34;;;;;;;11.65;6.43;;;6.20;99.90;;;;;;5072304;28;20048;-71
2023/04/19 04:52:59;;;;;;;9.90;7.05;;;6.20;99.90;;;;;;5071153;28;20048;-71
2023/04/19 04:55:25;;;;;;;14.07;7.32;;;6.10;99.90;;;;;;5072072;28;20115;-71
2023/04/19 04:57:50;;;;;;;9.27;6.53;;;6.10;99.90;;;;;;5070863;28;20036;-71
2023/04/19 05:00:16;;;;;;;11.07;7.10;;;6.20;99.90;;;;;;5072404;28;20087;-70
2023/04/19 05:02:42;;;;;;;8.60;5.85;;;6.30;99.90;;;;;;5071201;28;20045;-71
2023/04/19 05:05:10;;;;;;;9.48;5.93;;;6.30;99.90;;;;;;5072094;28;20040;-71
2023/04/19 05:07:35;;;;;;;10.27;6.15;;;6.50;99.90;;;;;;5070666;28;20079;-71
2023/04/19 05:10:01;;;;;;;6.60;5.20;;;6.60;99.90;;;;;;5072334;28;20052;-70
2023/04/19 05:12:26;;;;;;;10.00;5.65;;;6.70;99.90;;;;;;5072056;28;20047;-70
2023/04/19 05:14:52;;;;;;;10.60;5.95;;;6.80;99.90;;;;;;5072264;28;20040;-71
2023/04/19 05:17:17;;;;;;;9.30;5.68;;;6.90;99.90;;;;;;5071789;28;20037;-70
2023/04/19 05:19:43;;;;;;;10.68;6.35;;;7.10;99.90;;;;;;5071981;28;20037;-71
2023/04/19 05:22:09;;;;;;;8.40;5.95;;;7.20;99.90;;;;;;5071831;28;20435;-70
2023/04/19 05:24:34;;;;;;;10.95;5.68;;;7.30;99.90;;;;;;5071663;28;20036;-71
2023/04/19 05:27:00;;;;;;;8.57;5.35;;;7.40;99.90;;;;;;5070258;28;20045;-71
2023/04/19 05:29:26;;;;;;;8.13;5.15;;;7.50;99.90;;;;;;5070838;28;20454;-71
2023/04/19 05:31:51;;;;;;;9.25;5.13;;;7.60;99.90;;;;;;5070471;28;20499;-70
2023/04/19 05:34:17;;;;;;;7.78;5.32;;;7.70;99.90;;;;;;5070501;28;20072;-71
2023/04/19 05:36:42;;;;;;;9.32;6.00;;;7.80;99.90;;;;;;5070669;28;20435;-71
2023/04/19 05:39:08;;;;;;;8.15;4.97;;;7.90;99.90;;;;;;5071413;28;20037;-70
2023/04/19 05:41:33;;;;;;;9.77;5.15;;;8.10;99.90;;;;;;5071670;28;20119;-70
2023/04/19 05:43:59;;;;;;;8.63;5.22;;;8.10;99.90;;;;;;5071906;28;20136;-71
2023/04/19 05:46:25;;;;;;;9.95;4.85;;;8.30;99.50;;;;;;5070386;28;20076;-70
2023/04/19 05:48:50;;;;;;;8.00;4.88;;;8.40;99.40;;;;;;5070365;28;20511;-71
2023/04/19 05:51:17;;;;;;;6.43;4.95;;;8.40;99.20;;;;;;5071385;28;20048;-70
2023/04/19 05:53:43;;;;;;;10.43;5.32;;;8.50;98.50;;;;;;5071497;28;20044;-71
2023/04/19 05:56:09;;;;;;;8.18;5.43;;;8.60;98.30;;;;;;5069924;28;20041;-71
2023/04/19 05:58:35;;;;;;;13.40;4.78;;;8.60;98.00;;;;;;5070219;28;20048;-71
2023/04/19 06:01:01;;;;;;;10.27;5.00;;;8.70;97.70;;;;;;5070229;28;20028;-71
2023/04/19 06:03:27;;;;;;;8.40;5.40;;;8.70;97.10;;;;;;5070180;28;20029;-71
2023/04/19 06:05:52;;;;;;;7.45;4.47;;;8.80;97.20;;;;;;5069930;28;20043;-71
2023/04/19 06:08:18;;;;;;;7.90;4.85;;;8.90;97.00;;;;;;5071373;28;20067;-70
2023/04/19 06:10:46;;;;;;;6.88;4.57;;;9.00;96.70;;;;;;5071329;28;20044;-71
2023/04/19 06:13:12;;;;;;;7.15;5.03;;;9.20;96.10;;;;;;5053364;28;20033;-70
2023/04/19 06:15:39;;;;;;;9.15;5.22;;;9.40;95.60;;;;;;5069992;28;20527;-71
2023/04/19 06:18:08;;;;;;;6.85;4.18;;;9.40;95.30;;;;;;5071360;28;20047;-70
2023/04/19 06:20:35;;;;;;;7.25;4.40;;;9.40;94.90;;;;;;5073727;28;20036;-71
2023/04/19 06:23:01;;;;;;;9.13;4.93;;;9.60;94.90;;;;;;5075090;28;20459;-70
2023/04/19 06:25:26;;;;;;;8.23;4.68;;;9.50;95.00;;;;;;5075215;28;20029;-71
2023/04/19 06:27:52;;;;;;;9.20;5.10;;;9.70;94.50;;;;;;5075199;28;20041;-70
2023/04/19 06:30:17;;;;;;;6.30;4.40;;;9.80;94.30;;;;;;5075058;28;20066;-70
2023/04/19 06:32:43;;;;;;;7.85;3.88;;;9.90;93.80;;;;;;5075034;28;20040;-71
2023/04/19 06:35:08;;;;;;;7.32;4.53;;;9.80;93.60;;;;;;5073730;28;20036;-69
2023/04/19 06:37:34;;;;;;;5.88;4.15;;;10.00;93.50;;;;;;5071987;28;20036;-69
2023/04/19 06:40:00;;;;;;;5.63;3.72;;;10.10;92.80;;;;;;5055134;28;20044;-69
2023/04/19 06:42:26;;;;;;;5.78;4.22;;;10.40;92.90;;;;;;5053775;28;20112;-69
2023/04/19 06:44:52;;;;;;;6.97;4.20;;;10.50;92.20;;;;;;5054862;28;20033;-68
2023/04/19 06:47:18;;;;;;;7.10;3.92;;;10.50;91.80;;;;;;5054732;28;20044;-68
2023/04/19 06:49:43;;;;;;;7.88;4.07;;;10.50;91.80;;;;;;5054755;28;20033;-69
2023/04/19 06:52:09;;;;;;;7.07;4.22;;;10.40;92.00;;;;;;5054444;28;20182;-69
2023/04/19 06:54:35;;;;;;;9.13;4.30;;;10.60;91.20;;;;;;5054767;28;20041;-69
2023/04/19 06:57:01;;;;;;;5.60;3.78;;;10.60;90.60;;;;;;5054336;28;20048;-69
2023/04/19 06:59:27;;;;;;;4.63;3.60;;;10.60;90.00;;;;;;5053356;28;20484;-69
2023/04/19 07:01:53;;;;;;;5.10;3.35;;;10.80;89.90;;;;;;5054569;28;20048;-69
2023/04/19 07:04:18;;;;;;;4.53;3.40;;;11.00;89.50;;;;;;5054345;28;20647;-69
2023/04/19 07:06:48;;;;;;;5.63;3.83;;;11.20;87.80;;;;;;5054215;28;20051;-69
2023/04/19 07:09:14;;;;;;;6.72;3.45;;;11.20;86.90;;;;;;5053363;28;20043;-69
2023/04/19 07:11:39;;;;;;;8.35;3.85;;;11.20;86.40;;;;;;5054381;28;20124;-69
2023/04/19 07:14:05;;;;;;;6.63;3.50;;;11.10;86.10;;;;;;5053018;28;20044;-70
2023/04/19 07:16:31;;;;;;;7.70;3.40;;;11.20;86.70;;;;;;5052113;28;20496;-71
2023/04/19 07:18:57;;;;;;;6.65;4.00;;;11.30;84.90;;;;;;5093261;28;20463;-69
2023/04/19 07:21:25;;;;;;;6.78;3.10;;;11.50;84.50;;;;;;5076101;28;20068;-70
2023/04/19 07:23:51;;;;;;;3.80;3.00;;;11.40;83.50;;;;;;5094633;28;20036;-70
2023/04/19 07:26:16;;;;;;;3.50;2.65;;;11.50;82.40;;;;;;5092719;28;20038;-70
2023/04/19 07:28:42;;;;;;;6.93;3.00;;;11.40;81.30;;;;;;5094479;28;20101;-69
2023/04/19 07:31:14;;;;;;;5.63;3.03;;;11.70;82.00;;;;;;5093062;28;20411;-69
2023/04/19 07:33:40;;;;;;;4.85;2.90;;;11.60;80.60;;;;;;5076280;28;20566;-69
2023/04/19 07:36:06;;;;;;;4.18;2.55;;;11.60;81.00;;;;;;5073682;28;20044;-69
2023/04/19 07:38:31;;;;;;;5.38;2.92;;;11.80;79.60;;;;;;5072806;28;20124;-69
2023/04/19 07:40:57;;;;;;;4.78;3.03;;;11.90;80.20;;;;;;5072781;28;20044;-70
2023/04/19 07:43:22;;;;;;;4.38;2.28;;;12.30;79.20;;;;;;5073741;28;20032;-69
2023/04/19 07:45:48;;;;;;;4.20;2.47;;;12.10;78.50;;;;;;5073469;28;20067;-70
2023/04/19 07:48:13;;;;;;;3.38;2.60;;;12.10;78.10;;;;;;5073623;28;20048;-68
2023/04/19 07:50:39;;;;;;;5.82;3.60;;;12.10;78.20;;;;;;5073301;28;20056;-68
2023/04/19 07:53:04;;;;;;;5.35;2.85;;;12.10;78.20;;;;;;5073810;28;20036;-67
2023/04/19 07:55:30;;;;;;;4.85;2.78;;;12.20;78.10;;;;;;5072318;28;20044;-69
2023/04/19 07:57:55;;;;;;;5.75;3.13;;;12.60;78.70;;;;;;5073415;28;20037;-69
2023/04/19 08:00:21;;;;;;;7.20;3.08;;;12.50;78.00;;;;;;5072333;28;20174;-68
2023/04/19 08:02:47;;;;;;;5.03;3.00;;;12.70;78.20;;;;;;5073465;28;20033;-68
2023/04/19 08:05:17;;;;;;;4.45;3.40;;;12.80;77.20;;;;;;5070696;28;20071;-73
2023/04/19 08:07:43;;;;;;;6.32;3.25;;;12.90;77.00;;;;;;5065370;28;20033;-68
2023/04/19 08:10:09;;;;;;;8.95;3.47;;;13.20;77.50;;;;;;5069628;28;20531;-68
2023/04/19 08:12:35;;;;;;;3.65;2.83;;;13.20;75.20;;;;;;5067376;28;20039;-68
2023/04/19 08:15:02;;;;;;;3.58;2.40;;;13.30;74.40;;;;;;5068818;28;20036;-68
2023/04/19 08:17:27;;;;;;;5.35;3.10;;;13.20;73.80;;;;;;5062671;28;20116;-67
2023/04/19 08:19:53;;;;;;;5.38;2.97;;;13.20;73.50;;;;;;5067656;28;20072;-68
2023/04/19 08:22:20;;;;;;;3.20;2.25;;;13.10;73.30;;;;;;5058446;28;20039;-68
2023/04/19 08:24:45;;;;;;;3.25;2.60;;;13.10;73.60;;;;;;5069619;28;20036;-67
2023/04/19 08:27:11;;;;;;;2.70;2.30;;;13.20;73.60;;;;;;5058609;28;20048;-68
2023/04/19 08:29:39;;;;;;;2.05;1.85;;;13.20;73.70;;;;;;5070881;28;20399;-68
2023/04/19 08:32:06;;;;;;;3.80;2.22;;;13.50;72.70;;;;;;5060064;28;20471;-68
2023/04/19 08:34:35;;;;;;;3.85;1.92;;;13.50;71.90;;;;;;5065356;28;20044;-68
2023/04/19 08:37:01;;;;;;;4.03;2.15;;;13.50;71.70;;;;;;5060217;28;20193;-69
2023/04/19 08:39:27;;;;;;;4.00;2.22;;;13.50;71.70;;;;;;5066089;28;20037;-68
2023/04/19 08:41:56;;;;;;;3.85;2.10;;;13.50;69.50;;;;;;5063296;28;20047;-73
2023/04/19 08:44:23;;;;;;;4.20;1.90;;;13.30;68.80;;;;;;5064937;28;20037;-67
2023/04/19 08:46:49;;;;;;;4.05;2.08;;;13.50;69.10;;;;;;5064418;28;20658;-67
2023/04/19 08:49:15;;;;;;;4.57;2.10;;;13.40;67.30;;;;;;5059967;28;20404;-67
2023/04/19 08:51:43;;;;;;;3.70;1.88;;;13.50;67.50;;;;;;5065362;28;20036;-69
2023/04/19 08:54:09;;;;;;;2.13;1.55;;;13.60;67.00;;;;;;5061270;28;20036;-68
2023/04/19 08:56:35;;;;;;;4.38;2.50;;;13.60;65.40;;;;;;5065662;28;20040;-68
2023/04/19 08:59:01;;;;;;;3.30;1.92;;;13.50;64.70;;;;;;5064462;28;20063;-71
2023/04/19 09:01:26;;;;;;;2.78;1.70;;;13.60;65.30;;;;;;5065853;28;20036;-69
2023/04/19 09:03:52;;;;;;;4.65;2.20;;;13.60;65.40;;;;;;5064385;28;20072;-69
2023/04/19 09:06:17;;;;;;;3.10;2.78;;;13.60;64.60;;;;;;5068152;28;20036;-70
2023/04/19 09:08:43;;;;;;;2.78;2.00;;;13.80;64.70;;;;;;5059897;28;20098;-70
2023/04/19 09:11:08;;;;;;;5.43;2.08;;;14.00;64.30;;;;;;5066680;28;20047;-68
2023/04/19 09:13:37;;;;;;;4.72;1.88;;;14.00;63.10;;;;;;5062014;28;20086;-69
2023/04/19 09:16:03;;;;;;;2.53;1.65;;;14.10;62.90;;;;;;5063494;28;20037;-69
2023/04/19 09:18:29;;;;;;;3.08;1.70;;;14.10;62.10;;;;;;5063596;28;20491;-69
2023/04/19 09:20:58;;;;;;;3.38;1.80;;;14.00;60.40;;;;;;5063530;28;20043;-69
2023/04/19 09:23:26;;;;;;;2.30;1.98;;;13.90;58.80;;;;;;5081371;28;20040;-69
2023/04/19 09:26:00;;;;;;;2.85;1.55;;;14.00;57.90;;;;;;5067122;28;20043;-69
2023/04/19 09:28:27;;;;;;;2.65;1.60;;;13.90;58.00;;;;;;5063462;28;20041;-69
2023/04/19 09:30:56;;;;;;;2.30;1.80;;;13.70;56.00;;;;;;5065044;28;20404;-68
2023/04/19 09:33:40;;;;;;;3.55;1.75;;;13.60;55.20;;;;;;5065638;28;20037;-69
2023/04/19 09:36:07;;;;;;;2.22;1.70;;;13.70;56.70;;;;;;5069938;28;20051;-69
2023/04/19 09:38:53;;;;;;;2.35;1.65;;;13.70;56.70;;;;;;5064621;28;20032;-68
2023/04/19 09:41:18;;;;;;;3.53;1.60;;;13.60;54.60;;;;;;5054821;28;20145;-69
2023/04/19 09:43:44;;;;;;;3.05;2.10;;;13.60;54.60;;;;;;5049253;28;20511;-68
2023/04/19 09:46:35;;;;;;;3.22;1.42;;;13.50;53.70;;;;;;5055872;28;20041;-68
2023/04/19 09:49:19;;;;;;;4.20;1.48;;;13.50;52.90;;;;;;5065395;28;20170;-69
2023/04/19 09:51:55;;;;;;;7.47;1.95;;;13.50;52.10;;;;;;5061417;28;20072;-69
2023/04/19 09:54:26;;;;;;;4.00;1.80;;;13.70;53.70;;;;;;5065017;28;20037;-69
2023/04/19 09:56:51;;;;;;;2.75;1.60;;;13.70;53.20;;;;;;5066179;28;20068;-69
2023/04/19 09:59:17;;;;;;;4.05;1.60;;;13.70;52.60;;;;;;5060103;28;20060;-68
2023/04/19 10:01:47;;;;;;;4.50;1.70;;;13.70;51.80;;;;;;5064158;28;20044;-69
2023/04/19 10:04:20;;;;;;;3.60;1.70;;;13.50;50.80;;;;;;5061161;28;20040;-69
2023/04/19 10:06:48;;;;;;;3.60;1.58;;;13.40;50.60;;;;;;5066168;28;20051;-69
2023/04/19 10:09:14;;;;;;;2.40;1.33;;;13.50;52.20;;;;;;5062099;28;20107;-69
2023/04/19 10:11:42;;;;;;;2.85;1.48;;;13.60;51.80;;;;;;5067782;28;20458;-69
2023/04/19 10:14:10;;;;;;;3.58;1.30;;;13.70;51.10;;;;;;5056416;28;20045;-68
2023/04/19 10:16:37;;;;;;;3.33;1.17;;;13.70;50.20;;;;;;5065398;28;20060;-68
2023/04/19 10:19:07;;;;;;;3.72;1.58;;;13.60;50.10;;;;;;5060871;28;20040;-68
2023/04/19 10:21:34;;;;;;;4.95;2.45;;;13.60;49.50;;;;;;5068152;28;20127;-68
2023/04/19 10:24:01;;;;;;;4.32;1.90;;;13.60;50.60;;;;;;5059388;28;20064;-71
2023/04/19 10:26:27;;;;;;;3.85;1.52;;;13.70;50.80;;;;;;5063354;28;20029;-68
2023/04/19 10:28:56;;;;;;;4.35;1.35;;;13.60;50.00;;;;;;5060187;28;20051;-68
2023/04/19 10:31:25;;;;;;;4.50;1.40;;;13.70;50.90;;;;;;5064055;28;20118;-68
2023/04/19 10:33:50;;;;;;;2.45;1.30;;;13.80;51.20;;;;;;5061591;28;20052;-68
2023/04/19 10:36:17;;;;;;;3.08;1.40;;;13.80;49.50;;;;;;5065262;28;20032;-68
2023/04/19 10:38:51;;;;;;;3.00;1.20;;;13.70;48.60;;;;;;5062681;28;20036;-69
2023/04/19 10:41:20;;;;;;;4.60;1.30;;;13.60;48.90;;;;;;5060420;28;20089;-68
2023/04/19 10:43:56;;;;;;;3.08;1.25;;;13.60;49.00;;;;;;5065108;28;20178;-68
2023/04/19 10:46:23;;;;;;;1.52;1.00;;;13.60;49.60;;;;;;5053725;28;20504;-68
2023/04/19 10:48:52;;;;;;;2.45;1.45;;;13.70;49.80;;;;;;5064466;28;20053;-68
2023/04/19 10:51:26;;;;;;;1.90;1.40;;;13.70;49.30;;;;;;5044347;28;20455;-69
2023/04/19 10:53:57;;;;;;;4.20;1.70;;;13.70;49.90;;;;;;5065863;28;20563;-69
2023/04/19 10:56:32;;;;;;;2.85;1.35;;;13.70;51.00;;;;;;5076723;28;20032;-69
2023/04/19 10:59:00;;;;;;;3.85;1.40;;;13.70;50.30;;;;;;5065776;28;20565;-69
2023/04/19 11:01:49;;;;;;;2.22;1.23;;;13.70;48.80;;;;;;5058267;28;20436;-69
2023/04/19 11:04:21;;;;;;;4.40;1.38;;;13.60;49.10;;;;;;5057354;28;20055;-69
2023/04/19 11:06:52;;;;;;;1.85;1.15;;;13.70;49.30;;;;;;5064006;28;20047;-69
2023/04/19 11:09:33;;;;;;;4.00;1.30;;;13.80;50.20;;;;;;5059319;28;20041;-69
2023/04/19 11:12:11;;;;;;;3.17;1.02;;;13.80;49.20;;;;;;5047641;28;20049;-69
2023/04/19 11:14:37;;;;;;;2.70;1.50;;;13.80;48.20;;;;;;5063408;28;20060;-67
2023/04/19 11:17:24;;;;;;;3.25;1.40;;;13.90;49.10;;;;;;5051026;28;20527;-66
2023/04/19 11:19:56;;;;;;;4.10;1.20;;;13.70;48.60;;;;;;5064104;28;20037;-67
2023/04/19 11:22:32;;;;;;;2.40;1.25;;;13.70;48.20;;;;;;5065026;28;20408;-67
2023/04/19 11:25:11;;;;;;;2.60;1.58;;;13.70;46.80;;;;;;5062332;28;20114;-67
2023/04/19 11:27:38;;;;;;;3.30;1.65;;;13.50;46.90;;;;;;5061185;28;20076;-74
2023/04/19 11:30:06;;;;;;;3.15;1.35;;;13.70;47.90;;;;;;5046660;28;20086;-67
2023/04/19 11:32:32;;;;;;;3.55;1.88;;;13.70;48.60;;;;;;5066644;28;20040;-67
2023/04/19 11:35:03;;;;;;;2.80;1.70;;;13.70;49.50;;;;;;5063813;28;20036;-67
2023/04/19 11:37:33;;;;;;;3.72;2.15;;;13.60;50.20;;;;;;5061859;28;20055;-66
2023/04/19 11:39:59;;;;;;;3.83;1.83;;;13.60;49.80;;;;;;5071011;28;20036;-68
2023/04/19 11:42:25;;;;;;;2.55;2.08;;;13.50;50.20;;;;;;5067900;28;20040;-67
2023/04/19 11:44:51;;;;;;;4.63;2.13;;;13.50;49.60;;;;;;5071193;28;20063;-68
2023/04/19 11:47:18;;;;;;;4.22;2.13;;;13.50;50.00;;;;;;5062719;28;20036;-68
2023/04/19 11:49:43;;;;;;;3.78;1.92;;;13.40;49.80;;;;;;5064507;28;20045;-67
2023/04/19 11:52:09;;;;;;;3.10;2.33;;;13.40;49.70;;;;;;5058270;28;20041;-69
2023/04/19 11:54:34;;;;;;;4.15;2.35;;;13.40;50.00;;;;;;5070231;28;20036;-67
2023/04/19 11:57:05;;;;;;;2.85;2.10;;;13.30;50.30;;;;;;5060879;28;20047;-67
2023/04/19 11:59:32;;;;;;;5.25;2.20;;;13.30;51.30;;;;;;5071037;28;20119;-65
2023/04/19 12:02:11;;;;;;;3.30;2.65;;;13.40;51.50;;;;;;5059807;28;20079;-67
2023/04/19 12:04:38;;;;;;;4.50;2.20;;;13.40;53.00;;;;;;5059850;28;20041;-67
2023/04/19 12:07:05;;;;;;;5.95;2.45;;;13.40;53.70;;;;;;5062153;28;20045;-67
2023/04/19 12:09:35;;;;;;;2.88;2.17;;;13.50;52.60;;;;;;5065459;28;20037;-66
2023/04/19 12:12:01;;;;;;;5.10;2.38;;;13.50;52.50;;;;;;5064037;28;20075;-66
2023/04/19 12:14:28;;;;;;;3.53;1.98;;;13.40;53.20;;;;;;5067072;28;20041;-67
2023/04/19 12:17:11;;;;;;;5.05;2.28;;;13.50;52.00;;;;;;5064934;28;20048;-66
2023/04/19 12:19:42;;;;;;;3.20;1.90;;;13.50;51.20;;;;;;5057246;28;20072;-67
2023/04/19 12:22:19;;;;;;;4.45;2.67;;;13.40;52.50;;;;;;5066685;28;20062;-68
2023/04/19 12:24:45;;;;;;;5.32;3.00;;;13.30;53.20;;;;;;5061210;28;20052;-69
2023/04/19 12:27:10;;;;;;;3.65;2.28;;;13.30;53.70;;;;;;5067818;28;20040;-69
2023/04/19 12:29:37;;;;;;;3.58;2.22;;;13.40;54.50;;;;;;5063141;28;20039;-69
2023/04/19 12:32:03;;;;;;;5.15;2.95;;;13.60;53.10;;;;;;5065643;28;20048;-68
2023/04/19 12:34:28;;;;;;;5.53;2.13;;;13.50;53.30;;;;;;5059607;28;20045;-67
2023/04/19 12:36:54;;;;;;;3.92;2.20;;;13.70;53.80;;;;;;5068399;28;20529;-70
2023/04/19 12:39:20;;;;;;;4.93;2.88;;;13.80;54.10;;;;;;5060159;28;20064;-68
2023/04/19 12:41:48;;;;;;;3.65;2.30;;;13.70;54.20;;;;;;5069275;28;20036;-68
2023/04/19 12:44:15;;;;;;;4.07;2.55;;;13.70;54.40;;;;;;5060667;28;20069;-68
2023/04/19 12:46:40;;;;;;;3.90;2.50;;;13.70;55.00;;;;;;5064873;28;20052;-67